createdAt,value
2022-08-26T00:01:54.402Z,19.66
2022-08-26T00:04:26.004Z,19.62
2022-08-26T00:06:55.772Z,19.55
2022-08-26T00:09:25.009Z,19.47
2022-08-26T00:11:54.275Z,19.41
2022-08-26T00:14:26.037Z,19.39
2022-08-26T00:16:55.817Z,19.35
2022-08-26T00:19:23.239Z,19.32
2022-08-26T00:21:50.662Z,19.34
2022-08-26T00:24:21.016Z,19.44
2022-08-26T00:26:49.372Z,19.39
2022-08-26T00:29:17.641Z,19.37
2022-08-26T00:31:45.690Z,19.32
2022-08-26T00:34:15.353Z,19.31
2022-08-26T00:36:42.950Z,19.28
2022-08-26T00:39:10.566Z,19.26
2022-08-26T00:41:41.626Z,19.31
2022-08-26T00:44:11.271Z,19.28
2022-08-26T00:46:46.897Z,19.39
2022-08-26T00:49:20.206Z,19.43
2022-08-26T00:51:54.189Z,19.51
2022-08-26T00:54:27.058Z,19.37
2022-08-26T00:57:16.386Z,19.42
2022-08-26T00:59:47.745Z,19.39
2022-08-26T01:02:21.047Z,19.42
2022-08-26T01:04:55.639Z,19.49
2022-08-26T01:07:27.678Z,19.47
2022-08-26T01:09:59.678Z,19.46
2022-08-26T01:12:31.948Z,19.50
2022-08-26T01:14:59.412Z,19.47
2022-08-26T01:17:26.476Z,19.44
2022-08-26T01:20:27.231Z,19.50
2022-08-26T01:23:08.728Z,19.44
2022-08-26T01:25:40.547Z,19.45
2022-08-26T01:28:25.961Z,19.52
2022-08-26T01:30:55.104Z,19.46
2022-08-26T01:33:29.978Z,19.45
2022-08-26T01:36:07.980Z,19.47
2022-08-26T01:38:35.739Z,19.41
2022-08-26T01:41:03.457Z,19.46
2022-08-26T01:43:51.186Z,19.48
2022-08-26T01:46:20.378Z,19.38
2022-08-26T01:48:49.193Z,19.42
2022-08-26T01:51:23.474Z,19.37
2022-08-26T01:53:51.037Z,19.34
2022-08-26T01:56:18.620Z,19.25
2022-08-26T01:58:52.835Z,19.27
2022-08-26T02:01:21.517Z,19.25
2022-08-26T02:03:56.302Z,19.25
2022-08-26T02:06:23.835Z,19.20
2022-08-26T02:08:55.498Z,19.19
2022-08-26T02:11:23.088Z,19.17
2022-08-26T02:13:55.227Z,19.15
2022-08-26T02:16:26.236Z,19.17
2022-08-26T02:18:55.343Z,19.14
2022-08-26T02:21:24.923Z,19.16
2022-08-26T02:23:52.648Z,19.21
2022-08-26T02:26:24.488Z,19.19
2022-08-26T02:29:02.945Z,19.20
2022-08-26T02:31:30.295Z,19.12
2022-08-26T02:34:13.955Z,19.10
2022-08-26T02:36:42.936Z,19.03
2022-08-26T02:39:10.954Z,18.99
2022-08-26T02:41:44.797Z,18.91
2022-08-26T02:44:12.357Z,18.88
2022-08-26T02:46:39.856Z,18.86
2022-08-26T02:49:07.453Z,18.85
2022-08-26T02:51:34.459Z,18.85
2022-08-26T02:54:01.473Z,18.91
2022-08-26T02:56:29.454Z,18.82
2022-08-26T02:58:56.966Z,18.77
2022-08-26T03:01:30.562Z,18.83
2022-08-26T03:03:59.499Z,18.77
2022-08-26T03:06:26.548Z,18.72
2022-08-26T03:08:53.534Z,18.76
2022-08-26T03:11:20.450Z,18.81
2022-08-26T03:13:48.965Z,18.82
2022-08-26T03:16:16.351Z,18.92
2022-08-26T03:18:43.463Z,18.99
2022-08-26T03:21:20.504Z,19.03
2022-08-26T03:23:48.082Z,19.11
2022-08-26T03:26:15.925Z,19.26
2022-08-26T03:29:01.814Z,19.36
2022-08-26T03:31:29.736Z,19.40
2022-08-26T03:33:59.619Z,19.39
2022-08-26T03:36:27.052Z,19.37
2022-08-26T03:38:54.562Z,19.31
2022-08-26T03:41:21.951Z,19.27
2022-08-26T03:43:50.991Z,19.26
2022-08-26T03:46:20.698Z,19.27
2022-08-26T03:48:48.082Z,19.30
2022-08-26T03:51:19.868Z,19.40
2022-08-26T03:53:48.402Z,19.36
2022-08-26T03:56:15.496Z,19.33
2022-08-26T03:58:44.612Z,19.25
2022-08-26T04:01:16.262Z,19.34
2022-08-26T04:04:00.269Z,19.31
2022-08-26T04:06:36.306Z,19.31
2022-08-26T04:09:06.921Z,19.32
2022-08-26T04:11:38.663Z,19.32
2022-08-26T04:14:17.721Z,19.37
2022-08-26T04:16:47.883Z,19.38
2022-08-26T04:19:16.057Z,19.43
2022-08-26T04:21:43.534Z,19.47
2022-08-26T04:24:12.322Z,19.56
2022-08-26T04:26:42.860Z,19.54
2022-08-26T04:29:18.238Z,19.54
2022-08-26T04:31:48.227Z,19.60
2022-08-26T04:34:16.036Z,19.74
2022-08-26T04:36:44.766Z,19.91
2022-08-26T04:39:16.616Z,19.94
2022-08-26T04:41:46.427Z,19.99
2022-08-26T04:44:13.870Z,20.05
2022-08-26T04:46:43.905Z,20.23
2022-08-26T04:49:11.499Z,20.23
2022-08-26T04:51:39.198Z,20.23
2022-08-26T04:54:07.382Z,20.20
2022-08-26T04:56:38.540Z,20.23
2022-08-26T04:59:16.612Z,20.21
2022-08-26T05:01:49.505Z,20.17
2022-08-26T05:04:18.916Z,20.15
2022-08-26T05:06:47.296Z,20.12
2022-08-26T05:09:15.191Z,20.23
2022-08-26T05:11:42.429Z,20.21
2022-08-26T05:14:09.816Z,20.30
2022-08-26T05:16:37.841Z,20.35
2022-08-26T05:19:08.597Z,20.46
2022-08-26T05:21:36.533Z,20.51
2022-08-26T05:24:04.793Z,20.55
2022-08-26T05:26:32.092Z,20.70
2022-08-26T05:28:59.090Z,20.71
2022-08-26T05:31:30.382Z,20.78
2022-08-26T05:33:58.037Z,20.80
2022-08-26T05:36:28.026Z,20.89
2022-08-26T05:38:55.922Z,20.89
2022-08-26T05:41:34.514Z,21.01
2022-08-26T05:44:06.206Z,21.09
2022-08-26T05:46:34.475Z,21.15
2022-08-26T05:49:01.894Z,21.32
2022-08-26T05:51:30.420Z,21.46
2022-08-26T05:53:58.688Z,21.70
2022-08-26T05:56:27.772Z,21.79
2022-08-26T05:58:58.431Z,22.07
2022-08-26T06:01:27.587Z,22.38
2022-08-26T06:04:01.771Z,22.62
2022-08-26T06:06:36.002Z,22.76
2022-08-26T06:09:05.825Z,22.76
2022-08-26T06:11:33.484Z,22.79
2022-08-26T06:14:04.225Z,22.99
2022-08-26T06:16:34.875Z,23.24
2022-08-26T06:19:10.538Z,23.41
2022-08-26T06:21:40.236Z,23.43
2022-08-26T06:24:29.585Z,23.64
2022-08-26T06:27:01.609Z,23.73
2022-08-26T06:29:31.200Z,24.09
2022-08-26T06:31:58.739Z,24.23
2022-08-26T06:34:30.656Z,24.54
2022-08-26T06:37:02.434Z,24.72
2022-08-26T06:39:30.941Z,24.71
2022-08-26T06:42:02.544Z,24.77
2022-08-26T06:44:34.289Z,25.03
2022-08-26T06:47:01.596Z,25.12
2022-08-26T06:49:28.637Z,25.17
2022-08-26T06:51:59.897Z,25.32
2022-08-26T06:54:32.330Z,25.45
2022-08-26T06:56:59.878Z,25.58
2022-08-26T06:59:26.975Z,25.58
2022-08-26T07:01:55.191Z,25.31
2022-08-26T07:04:23.390Z,25.58
2022-08-26T07:06:52.367Z,25.32
2022-08-26T07:09:21.903Z,25.30
2022-08-26T07:11:49.750Z,25.20
2022-08-26T07:14:19.296Z,25.07
2022-08-26T07:16:48.717Z,25.08
2022-08-26T07:19:17.579Z,25.24
2022-08-26T07:21:55.967Z,25.10
2022-08-26T07:24:22.998Z,25.22
2022-08-26T07:26:50.243Z,24.84
2022-08-26T07:29:18.724Z,24.62
2022-08-26T07:31:46.408Z,24.54
2022-08-26T07:34:14.029Z,24.64
2022-08-26T07:36:41.520Z,24.74
2022-08-26T07:39:09.063Z,24.69
2022-08-26T07:41:36.754Z,24.71
2022-08-26T07:44:04.355Z,24.77
2022-08-26T07:46:31.765Z,24.98
2022-08-26T07:48:58.839Z,24.86
2022-08-26T07:51:26.381Z,24.87
2022-08-26T07:53:54.827Z,24.78
2022-08-26T07:56:23.483Z,24.81
2022-08-26T07:58:52.965Z,24.96
2022-08-26T08:01:21.558Z,25.04
2022-08-26T08:03:51.652Z,24.96
2022-08-26T08:06:20.117Z,24.95
2022-08-26T08:08:47.901Z,24.94
2022-08-26T08:11:21.577Z,24.96
2022-08-26T08:13:56.571Z,24.91
2022-08-26T08:16:32.240Z,24.80
2022-08-26T08:19:00.431Z,24.66
2022-08-26T08:21:28.308Z,24.76
2022-08-26T08:23:57.484Z,24.74
2022-08-26T08:26:25.923Z,24.83
2022-08-26T08:28:57.953Z,24.75
2022-08-26T08:31:55.945Z,24.83
2022-08-26T08:34:15.938Z,24.94
2022-08-26T08:36:46.476Z,25.17
2022-08-26T08:39:13.910Z,25.18
2022-08-26T08:41:48.685Z,25.26
2022-08-26T08:44:21.508Z,25.15
2022-08-26T08:47:00.897Z,25.25
2022-08-26T08:49:29.343Z,25.13
2022-08-26T08:52:05.578Z,25.17
2022-08-26T08:54:33.855Z,24.97
2022-08-26T08:57:17.109Z,24.75
2022-08-26T08:59:54.396Z,24.92
2022-08-26T09:02:29.369Z,24.76
2022-08-26T09:05:28.629Z,24.74
2022-08-26T09:07:58.658Z,24.87
2022-08-26T09:10:36.729Z,25.04
2022-08-26T09:13:09.432Z,24.93
2022-08-26T09:15:46.714Z,25.18
2022-08-26T09:18:22.762Z,25.51
2022-08-26T09:20:59.988Z,25.63
2022-08-26T09:23:27.432Z,25.81
2022-08-26T09:26:03.662Z,25.79
2022-08-26T09:28:32.066Z,25.94
2022-08-26T09:31:32.862Z,25.77
2022-08-26T09:34:26.475Z,25.90
2022-08-26T09:36:55.156Z,25.52
2022-08-26T09:39:27.963Z,25.52
2022-08-26T09:42:07.193Z,25.61
2022-08-26T10:17:16.973Z,25.55
2022-08-26T10:19:57.862Z,25.74
2022-08-26T10:22:36.929Z,26.11
2022-08-26T10:25:09.154Z,25.87
2022-08-26T10:27:55.031Z,26.07
2022-08-26T10:30:28.010Z,26.10
2022-08-26T10:33:04.869Z,26.00
2022-08-26T10:35:33.539Z,26.11
2022-08-26T10:38:12.120Z,26.09
2022-08-26T10:40:43.130Z,26.22
2022-08-26T10:43:17.966Z,26.19
2022-08-26T10:45:59.378Z,26.23
2022-08-26T10:48:59.985Z,26.22
2022-08-26T10:51:35.644Z,26.44
2022-08-26T10:54:09.460Z,26.47
2022-08-26T10:56:44.767Z,26.37
2022-08-26T10:59:21.502Z,26.62
2022-08-26T11:02:00.225Z,26.38
2022-08-26T11:04:37.172Z,26.39
2022-08-26T11:07:32.132Z,26.37
2022-08-26T11:10:23.006Z,26.27
2022-08-26T11:13:00.864Z,26.48
2022-08-26T11:15:29.337Z,26.47
2022-08-26T11:18:08.976Z,26.37
2022-08-26T11:20:36.200Z,26.17
2022-08-26T11:23:22.575Z,26.24
2022-08-26T11:26:07.743Z,26.19
2022-08-26T11:28:44.913Z,26.34
2022-08-26T11:31:27.463Z,26.17
2022-08-26T11:34:00.169Z,26.05
2022-08-26T11:36:45.538Z,26.31
2022-08-26T11:39:30.431Z,26.27
2022-08-26T11:42:14.415Z,26.56
2022-08-26T11:44:49.598Z,26.34
2022-08-26T11:47:25.103Z,26.05
2022-08-26T11:50:07.524Z,26.02
2022-08-26T11:52:34.535Z,26.05
2022-08-26T11:55:11.778Z,25.98
2022-08-26T11:57:46.515Z,25.96
2022-08-26T12:00:26.563Z,25.98
2022-08-26T12:02:55.727Z,25.85
2022-08-26T12:05:29.540Z,26.03
2022-08-26T12:08:06.271Z,25.90
2022-08-26T12:10:35.232Z,25.85
2022-08-26T12:13:03.709Z,25.76
2022-08-26T12:15:32.333Z,25.79
2022-08-26T12:18:18.106Z,25.81
2022-08-26T12:20:56.844Z,25.83
2022-08-26T12:23:25.549Z,25.71
2022-08-26T12:26:03.117Z,25.75
2022-08-26T12:28:31.267Z,25.60
2022-08-26T12:31:03.704Z,25.42
2022-08-26T12:33:36.513Z,25.35
2022-08-26T12:36:06.110Z,25.25
2022-08-26T12:38:36.955Z,25.41
2022-08-26T12:41:04.222Z,25.25
2022-08-26T12:43:43.701Z,25.13
2022-08-26T12:46:16.408Z,25.02
2022-08-26T12:48:47.595Z,25.11
2022-08-26T12:51:30.267Z,25.08
2022-08-26T12:53:58.128Z,25.08
2022-08-26T12:56:41.176Z,25.02
2022-08-26T12:59:26.319Z,25.20
2022-08-26T13:01:55.059Z,25.06
2022-08-26T13:04:31.784Z,25.12
2022-08-26T13:07:22.487Z,25.20
2022-08-26T13:09:52.146Z,25.17
2022-08-26T13:12:32.711Z,25.09
2022-08-26T13:15:01.566Z,25.25
2022-08-26T13:17:30.356Z,25.14
2022-08-26T13:20:03.297Z,25.13
2022-08-26T13:22:30.931Z,25.02
2022-08-26T13:24:58.079Z,25.01
2022-08-26T13:27:27.287Z,25.08
2022-08-26T13:29:57.163Z,25.06
2022-08-26T13:32:26.891Z,24.99
2022-08-26T13:34:56.366Z,25.06
2022-08-26T13:37:34.178Z,25.10
2022-08-26T13:40:06.494Z,25.14
2022-08-26T13:42:34.520Z,25.21
2022-08-26T13:45:02.339Z,25.03
2022-08-26T13:47:29.683Z,25.06
2022-08-26T13:49:56.663Z,25.02
2022-08-26T13:52:27.338Z,25.04
2022-08-26T13:54:58.763Z,25.03
2022-08-26T13:57:28.027Z,25.05
2022-08-26T13:59:56.598Z,25.04
2022-08-26T14:02:23.697Z,25.04
2022-08-26T14:04:50.767Z,25.09
2022-08-26T14:07:17.710Z,25.10
2022-08-26T14:09:44.644Z,25.11
2022-08-26T14:12:11.739Z,25.08
2022-08-26T14:14:38.686Z,25.00
2022-08-26T14:17:06.980Z,25.01
2022-08-26T14:19:34.062Z,24.97
2022-08-26T14:22:01.825Z,25.04
2022-08-26T14:24:29.548Z,25.06
2022-08-26T14:26:56.579Z,25.11
2022-08-26T14:29:23.487Z,25.10
2022-08-26T14:31:50.424Z,25.09
2022-08-26T14:34:17.470Z,25.07
2022-08-26T14:36:44.416Z,25.01
2022-08-26T14:39:13.855Z,25.03
2022-08-26T14:41:53.719Z,25.03
2022-08-26T14:44:23.923Z,25.02
2022-08-26T14:46:53.004Z,25.08
2022-08-26T14:49:22.198Z,25.10
2022-08-26T14:51:49.908Z,25.17
2022-08-26T14:54:18.229Z,25.17
2022-08-26T14:57:01.092Z,25.23
2022-08-26T14:59:34.087Z,25.26
2022-08-26T15:02:01.852Z,25.25
2022-08-26T15:04:28.991Z,25.25
2022-08-26T15:06:58.822Z,25.26
2022-08-26T15:09:28.014Z,25.23
2022-08-26T15:11:55.172Z,25.21
2022-08-26T15:14:23.227Z,25.22
2022-08-26T15:16:53.294Z,25.25
2022-08-26T15:19:21.135Z,25.21
2022-08-26T15:21:48.145Z,25.19
2022-08-26T15:24:17.610Z,25.23
2022-08-26T15:26:45.819Z,25.21
2022-08-26T15:29:13.056Z,25.17
2022-08-26T15:31:40.539Z,25.15
2022-08-26T15:34:14.583Z,25.01
2022-08-26T15:36:46.036Z,24.77
2022-08-26T15:39:13.466Z,24.58
2022-08-26T15:41:40.622Z,24.46
2022-08-26T15:44:08.495Z,24.37
2022-08-26T15:46:37.532Z,24.30
2022-08-26T15:49:06.057Z,24.11
2022-08-26T15:51:45.116Z,24.08
2022-08-26T15:54:16.753Z,24.08
2022-08-26T15:56:44.104Z,24.09
2022-08-26T15:59:12.052Z,24.13
2022-08-26T16:01:39.790Z,24.16
2022-08-26T16:04:07.272Z,24.16
2022-08-26T16:06:36.430Z,24.19
2022-08-26T16:09:04.553Z,24.19
2022-08-26T16:11:31.637Z,24.25
2022-08-26T16:13:58.698Z,24.22
2022-08-26T16:16:26.463Z,24.17
2022-08-26T16:18:53.824Z,24.15
2022-08-26T16:21:24.750Z,24.13
2022-08-26T16:23:52.267Z,24.04
2022-08-26T16:26:22.840Z,23.92
2022-08-26T16:28:49.987Z,23.85
2022-08-26T16:31:17.541Z,23.85
2022-08-26T16:33:44.481Z,23.84
2022-08-26T16:36:12.170Z,23.77
2022-08-26T16:38:40.729Z,23.82
2022-08-26T16:41:09.159Z,23.77
2022-08-26T16:43:36.849Z,23.73
2022-08-26T16:46:07.201Z,23.72
2022-08-26T16:48:35.067Z,23.74
2022-08-26T16:51:02.052Z,23.64
2022-08-26T16:53:29.128Z,23.56
2022-08-26T16:55:56.055Z,23.52
2022-08-26T16:58:23.128Z,23.47
2022-08-26T17:00:50.150Z,23.40
2022-08-26T17:03:17.899Z,23.38
2022-08-26T17:05:44.975Z,23.34
2022-08-26T17:08:14.522Z,23.38
2022-08-26T17:10:51.790Z,23.41
2022-08-26T17:13:29.697Z,23.51
2022-08-26T17:16:05.065Z,23.58
2022-08-26T17:18:33.556Z,23.69
2022-08-26T17:21:12.837Z,23.70
2022-08-26T17:23:41.807Z,23.73
2022-08-26T17:26:10.920Z,23.81
2022-08-26T17:28:38.270Z,23.88
2022-08-26T17:31:06.736Z,23.92
2022-08-26T17:33:33.748Z,24.05
2022-08-26T17:36:00.978Z,24.29
2022-08-26T17:38:29.307Z,24.39
2022-08-26T17:40:57.584Z,24.46
2022-08-26T17:43:26.834Z,24.53
2022-08-26T17:46:07.069Z,24.65
2022-08-26T17:48:36.220Z,24.72
2022-08-26T17:51:11.242Z,24.79
2022-08-26T17:53:38.941Z,24.89
2022-08-26T17:56:08.325Z,24.95
2022-08-26T17:58:35.784Z,25.04
2022-08-26T18:01:03.197Z,25.07
2022-08-26T18:03:30.196Z,25.04
2022-08-26T18:05:57.533Z,25.04
2022-08-26T18:08:24.811Z,25.07
2022-08-26T18:10:51.850Z,25.13
2022-08-26T18:13:19.122Z,25.13
2022-08-26T18:15:47.335Z,24.98
2022-08-26T18:18:15.382Z,25.06
2022-08-26T18:20:44.103Z,25.00
2022-08-26T18:23:12.537Z,24.83
2022-08-26T18:25:41.828Z,24.85
2022-08-26T18:28:09.242Z,24.76
2022-08-26T18:30:36.390Z,24.54
2022-08-26T18:33:03.572Z,24.71
2022-08-26T18:35:30.716Z,24.70
2022-08-26T18:38:00.825Z,24.49
2022-08-26T18:40:39.843Z,24.24
2022-08-26T18:43:07.071Z,23.98
2022-08-26T18:45:34.670Z,23.85
2022-08-26T18:48:03.767Z,23.76
2022-08-26T18:50:30.866Z,23.65
2022-08-26T18:52:57.794Z,23.52
2022-08-26T18:55:24.927Z,23.49
2022-08-26T18:57:51.901Z,23.30
2022-08-26T19:00:18.940Z,23.31
2022-08-26T19:02:47.069Z,23.13
2022-08-26T19:05:19.921Z,23.06
2022-08-26T19:07:47.990Z,22.98
2022-08-26T19:10:15.130Z,22.92
2022-08-26T19:12:42.529Z,22.91
2022-08-26T19:15:11.297Z,22.88
2022-08-26T19:17:38.250Z,22.71
2022-08-26T19:20:06.035Z,22.61
2022-08-26T19:22:33.314Z,22.72
2022-08-26T19:25:00.919Z,22.57
2022-08-26T19:27:28.055Z,22.42
2022-08-26T19:29:57.436Z,22.51
2022-08-26T19:32:25.386Z,22.49
2022-08-26T19:34:52.820Z,22.37
2022-08-26T19:37:20.488Z,22.18
2022-08-26T19:39:47.888Z,22.14
2022-08-26T19:42:14.837Z,22.19
2022-08-26T19:45:00.398Z,22.29
2022-08-26T19:47:27.453Z,22.31
2022-08-26T19:49:55.605Z,22.38
2022-08-26T19:52:24.438Z,22.38
2022-08-26T19:54:57.390Z,22.17
2022-08-26T19:57:24.512Z,22.00
2022-08-26T19:59:51.486Z,21.88
2022-08-26T20:02:19.355Z,21.78
2022-08-26T20:04:46.357Z,21.73
2022-08-26T20:07:18.527Z,21.74
2022-08-26T20:09:47.088Z,21.68
2022-08-26T20:12:15.251Z,21.66
2022-08-26T20:14:42.640Z,21.58
2022-08-26T20:17:09.678Z,21.54
2022-08-26T20:19:55.152Z,21.51
2022-08-26T20:22:22.483Z,21.58
2022-08-26T20:24:49.843Z,21.61
2022-08-26T20:27:16.779Z,21.67
2022-08-26T20:29:43.750Z,21.74
2022-08-26T20:32:12.089Z,21.62
2022-08-26T20:34:40.087Z,21.44
2022-08-26T20:37:08.561Z,21.35
2022-08-26T20:39:35.853Z,21.32
2022-08-26T20:42:03.378Z,21.39
2022-08-26T20:44:30.615Z,21.31
2022-08-26T20:46:59.251Z,21.26
2022-08-26T20:49:27.794Z,21.18
2022-08-26T20:51:55.137Z,21.20
2022-08-26T20:54:28.270Z,21.27
2022-08-26T20:56:57.000Z,21.28
2022-08-26T20:59:24.572Z,21.22
2022-08-26T21:01:52.031Z,21.18
2022-08-26T21:04:22.764Z,21.23
2022-08-26T21:06:52.712Z,21.23
2022-08-26T21:09:22.545Z,21.42
2022-08-26T21:11:50.118Z,21.46
2022-08-26T21:14:17.824Z,21.63
2022-08-26T21:16:46.087Z,21.75
2022-08-26T21:19:15.394Z,21.55
2022-08-26T21:21:42.602Z,21.18
2022-08-26T21:24:10.237Z,21.03
2022-08-26T21:26:37.320Z,21.28
2022-08-26T21:29:05.076Z,21.10
2022-08-26T21:31:32.306Z,20.73
2022-08-26T21:33:59.911Z,20.84
2022-08-26T21:36:27.268Z,20.85
2022-08-26T21:38:58.198Z,20.63
2022-08-26T21:41:25.880Z,20.46
2022-08-26T21:43:55.718Z,20.36
2022-08-26T21:46:24.025Z,20.21
2022-08-26T21:49:00.565Z,20.12
2022-08-26T21:51:31.096Z,20.04
2022-08-26T21:53:59.640Z,20.09
2022-08-26T21:56:29.278Z,20.22
2022-08-26T21:58:56.802Z,20.35
2022-08-26T22:01:26.934Z,20.50
2022-08-26T22:03:54.653Z,20.61
2022-08-26T22:06:26.146Z,20.70
2022-08-26T22:08:54.125Z,20.69
2022-08-26T22:11:21.591Z,20.47
2022-08-26T22:13:49.004Z,20.26
2022-08-26T22:16:16.956Z,20.13
2022-08-26T22:18:45.855Z,19.95
2022-08-26T22:21:19.373Z,19.92
2022-08-26T22:23:46.858Z,19.82
2022-08-26T22:26:25.200Z,19.98
2022-08-26T22:28:54.818Z,19.97
2022-08-26T22:31:28.098Z,20.01
2022-08-26T22:34:07.159Z,20.08
2022-08-26T22:36:34.195Z,20.10
2022-08-26T22:39:01.253Z,20.13
2022-08-26T22:41:28.301Z,20.17
2022-08-26T22:43:55.505Z,20.17
2022-08-26T22:46:25.538Z,20.23
2022-08-26T22:48:53.923Z,20.29
2022-08-26T22:51:22.180Z,20.29
2022-08-26T22:53:49.505Z,20.41
2022-08-26T22:56:18.428Z,20.53
2022-08-26T22:58:45.740Z,20.63
2022-08-26T23:01:13.368Z,20.70
2022-08-26T23:03:40.416Z,20.75
2022-08-26T23:06:10.266Z,20.79
2022-08-26T23:08:38.937Z,20.77
2022-08-26T23:11:10.747Z,20.82
2022-08-26T23:13:38.714Z,20.75
2022-08-26T23:16:09.873Z,20.67
2022-08-26T23:18:37.458Z,20.53
2022-08-26T23:21:05.036Z,20.49
2022-08-26T23:23:32.878Z,20.42
2022-08-26T23:26:03.239Z,20.33
2022-08-26T23:28:32.593Z,20.32
2022-08-26T23:30:59.764Z,20.36
2022-08-26T23:33:46.652Z,20.45
2022-08-26T23:36:17.875Z,20.58
2022-08-26T23:38:52.915Z,20.71
2022-08-26T23:41:22.942Z,20.66
2022-08-26T23:43:51.660Z,20.49
2022-08-26T23:46:19.273Z,20.44
2022-08-26T23:48:46.631Z,20.41
2022-08-26T23:51:31.981Z,20.35
2022-08-26T23:53:59.001Z,20.40
2022-08-26T23:56:26.742Z,20.43
2022-08-26T23:58:54.607Z,20.44
